createdAt,value
2022-11-08T00:00:03.076Z,0
2022-11-08T00:15:02.684Z,0
2022-11-08T00:30:02.945Z,0
2022-11-08T00:45:02.377Z,0
2022-11-08T01:00:02.814Z,0
2022-11-08T01:15:03.313Z,0
2022-11-08T01:30:02.709Z,0
2022-11-08T01:45:03.127Z,0
2022-11-08T02:00:02.706Z,0
2022-11-08T02:15:03.031Z,0
2022-11-08T02:30:02.679Z,0
2022-11-08T02:45:02.904Z,0
2022-11-08T03:00:02.375Z,0
2022-11-08T03:15:02.765Z,0
2022-11-08T03:30:02.230Z,0
2022-11-08T03:45:02.730Z,0
2022-11-08T04:00:03.076Z,0
2022-11-08T04:15:02.741Z,0
2022-11-08T04:30:02.973Z,0
2022-11-08T04:45:02.390Z,0
2022-11-08T05:00:02.844Z,0
2022-11-08T05:15:02.259Z,0
2022-11-08T05:30:02.758Z,0
2022-11-08T05:45:08.269Z,0
2022-11-08T06:00:02.765Z,0
2022-11-08T06:30:02.467Z,0
2022-11-08T06:45:02.890Z,5
2022-11-08T07:00:02.335Z,14
2022-11-08T07:15:02.793Z,26
2022-11-08T07:45:02.781Z,52
2022-11-08T08:00:07.508Z,58
2022-11-08T08:15:02.527Z,88
2022-11-08T08:30:02.952Z,95
2022-11-08T08:45:02.408Z,149
2022-11-08T09:15:02.284Z,276
2022-11-08T09:30:02.802Z,156
2022-11-08T09:45:03.169Z,227
2022-11-08T10:00:02.788Z,204
2022-11-08T10:15:03.031Z,180
2022-11-08T10:30:02.454Z,142
2022-11-08T10:45:02.915Z,232
2022-11-08T11:00:02.321Z,205
2022-11-08T11:15:02.823Z,166
2022-11-08T11:30:02.260Z,222
2022-11-08T11:45:02.841Z,128
2022-11-08T12:00:02.084Z,128
2022-11-08T12:15:02.557Z,155
2022-11-08T12:30:02.985Z,117
2022-11-08T12:45:02.398Z,148
2022-11-08T13:00:02.858Z,166
2022-11-08T13:15:02.287Z,85
2022-11-08T13:30:02.875Z,53
2022-11-08T13:45:02.188Z,59
2022-11-08T14:00:02.851Z,65
2022-11-08T14:15:02.070Z,60
2022-11-08T14:30:02.489Z,32
2022-11-08T14:45:02.920Z,33
2022-11-08T15:00:02.354Z,18
2022-11-08T15:15:02.897Z,11
2022-11-08T15:30:02.180Z,0
2022-11-08T15:45:02.850Z,0
2022-11-08T16:00:02.140Z,0
2022-11-08T16:15:02.541Z,0
2022-11-08T16:30:02.989Z,0
2022-11-08T16:45:02.392Z,0
2022-11-08T17:00:02.903Z,0
2022-11-08T17:15:02.300Z,0
2022-11-08T17:30:02.921Z,0
2022-11-08T17:45:02.178Z,0
2022-11-08T18:00:02.680Z,0
2022-11-08T18:15:03.067Z,0
2022-11-08T18:30:02.514Z,0
2022-11-08T18:45:02.968Z,0
2022-11-08T19:00:02.481Z,0
2022-11-08T19:15:02.927Z,0
2022-11-08T19:30:02.244Z,0
2022-11-08T19:45:02.916Z,0
2022-11-08T20:00:02.149Z,0
2022-11-08T20:15:02.585Z,0
2022-11-08T20:30:03.049Z,0
2022-11-08T20:45:02.447Z,0
2022-11-08T21:00:12.532Z,0
2022-11-08T21:30:02.947Z,0
2022-11-08T21:45:02.213Z,0
2022-11-08T22:00:02.689Z,0
2022-11-08T22:15:03.103Z,0
2022-11-08T22:30:02.551Z,0
2022-11-08T22:45:03.004Z,0
2022-11-08T23:00:02.432Z,0
2022-11-08T23:15:01.970Z,0
2022-11-08T23:30:02.324Z,0
2022-11-08T23:45:02.985Z,0
